Observation data for Slaton on 06/03/2020      Previous  Date  Next       Current Mesonet Observations  Soil Data  Daily Summary Page  Observations in Plain Language
KSLS 030500Z 15011KT 23/16 A3008 RMK A01 T02340161  RH  065%=      5-min Rain = 0
KSLS 030505Z 15011KT 23/16 A3008 RMK A01 T02340161  RH  065%=      5-min Rain = 0
KSLS 030510Z 16011KT 23/16 A3008 RMK A01 T02340161  RH  065%=      5-min Rain = 0
KSLS 030515Z 16011KT 23/16 A3008 RMK A01 T02330161  RH  066%=      5-min Rain = 0
KSLS 030520Z 16011KT 23/16 A3008 RMK A01 T02320161  RH  066%=      5-min Rain = 0
KSLS 030525Z 16011KT 23/16 A3008 RMK A01 T02310162  RH  066%=      5-min Rain = 0
KSLS 030530Z 15010KT 23/16 A3008 RMK A01 T02310161  RH  066%=      5-min Rain = 0
KSLS 030535Z 16011KT 23/16 A3008 RMK A01 T02300161  RH  067%=      5-min Rain = 0
KSLS 030540Z 16010KT 23/16 A3008 RMK A01 T02290161  RH  067%=      5-min Rain = 0
KSLS 030545Z 16010KT 23/16 A3008 RMK A01 T02290162  RH  067%=      5-min Rain = 0
KSLS 030550Z 16010KT 23/16 A3008 RMK A01 T02280162  RH  068%=      5-min Rain = 0
KSLS 030555Z 16010KT 23/16 A3008 RMK A01 T02280162  RH  068%=      5-min Rain = 0
KSLS 030600Z 16010KT 23/16 A3008 RMK A01 T02270162  RH  068%=      5-min Rain = 0
KSLS 030605Z 16010KT 23/16 A3008 RMK A01 T02260162  RH  069%=      5-min Rain = 0
KSLS 030610Z 16010KT 23/16 A3008 RMK A01 T02260162  RH  069%=      5-min Rain = 0
KSLS 030615Z 16009KT 23/16 A3008 RMK A01 T02260162  RH  069%=      5-min Rain = 0
KSLS 030620Z 16009KT 23/16 A3008 RMK A01 T02260162  RH  069%=      5-min Rain = 0
KSLS 030625Z 16010KT 23/16 A3008 RMK A01 T02260162  RH  069%=      5-min Rain = 0
KSLS 030630Z 17009KT 23/16 A3008 RMK A01 T02250161  RH  069%=      5-min Rain = 0
KSLS 030635Z 17009KT 22/16 A3008 RMK A01 T02230161  RH  069%=      5-min Rain = 0
KSLS 030640Z 17009KT 22/16 A3008 RMK A01 T02230161  RH  069%=      5-min Rain = 0
KSLS 030645Z 17010KT 22/16 A3008 RMK A01 T02230161  RH  069%=      5-min Rain = 0
KSLS 030650Z 17009KT 22/16 A3007 RMK A01 T02220160  RH  070%=      5-min Rain = 0
KSLS 030655Z 18010KT 22/16 A3007 RMK A01 T02210160  RH  070%=      5-min Rain = 0
KSLS 030700Z 18009KT 22/16 A3007 RMK A01 T02200160  RH  070%=      5-min Rain = 0
KSLS 030705Z 18009KT 22/16 A3007 RMK A01 T02190159  RH  071%=      5-min Rain = 0
KSLS 030710Z 18009KT 22/16 A3007 RMK A01 T02170159  RH  071%=      5-min Rain = 0
KSLS 030715Z 19009KT 22/16 A3007 RMK A01 T02150159  RH  072%=      5-min Rain = 0
KSLS 030720Z 19009KT 21/16 A3006 RMK A01 T02140159  RH  072%=      5-min Rain = 0
KSLS 030725Z 18008KT 21/16 A3006 RMK A01 T02130158  RH  072%=      5-min Rain = 0
KSLS 030730Z 18008KT 21/16 A3006 RMK A01 T02110158  RH  073%=      5-min Rain = 0
KSLS 030735Z 18008KT 21/16 A3006 RMK A01 T02100157  RH  074%=      5-min Rain = 0
KSLS 030740Z 18007KT 21/16 A3006 RMK A01 T02070156  RH  074%=      5-min Rain = 0
KSLS 030745Z 18008KT 21/16 A3006 RMK A01 T02060156  RH  075%=      5-min Rain = 0
KSLS 030750Z 18008KT 21/16 A3006 RMK A01 T02050156  RH  075%=      5-min Rain = 0
KSLS 030755Z 19008KT 20/16 A3006 RMK A01 T02040155  RH  075%=      5-min Rain = 0
KSLS 030800Z 19008KT 21/16 A3006 RMK A01 T02050155  RH  075%=      5-min Rain = 0
KSLS 030805Z 19007KT 20/16 A3006 RMK A01 T02040155  RH  075%=      5-min Rain = 0
KSLS 030810Z 19007KT 20/16 A3006 RMK A01 T02040155  RH  075%=      5-min Rain = 0
KSLS 030815Z 20007KT 20/15 A3006 RMK A01 T02030154  RH  075%=      5-min Rain = 0
KSLS 030820Z 20007KT 20/15 A3005 RMK A01 T02010154  RH  076%=      5-min Rain = 0
KSLS 030825Z 20007KT 20/15 A3005 RMK A01 T02020154  RH  076%=      5-min Rain = 0
KSLS 030830Z 20008KT 20/15 A3005 RMK A01 T02030154  RH  075%=      5-min Rain = 0
KSLS 030835Z 20008KT 21/15 A3005 RMK A01 T02050154  RH  074%=      5-min Rain = 0
KSLS 030840Z 20009KT 21/15 A3005 RMK A01 T02060153  RH  073%=      5-min Rain = 0
KSLS 030845Z 20008KT 21/15 A3005 RMK A01 T02070153  RH  073%=      5-min Rain = 0
KSLS 030850Z 20008KT 21/15 A3005 RMK A01 T02060153  RH  073%=      5-min Rain = 0
KSLS 030855Z 21008KT 21/15 A3005 RMK A01 T02050153  RH  073%=      5-min Rain = 0
KSLS 030900Z 21008KT 20/15 A3005 RMK A01 T02030153  RH  074%=      5-min Rain = 0
KSLS 030905Z 21007KT 20/15 A3005 RMK A01 T02020152  RH  075%=      5-min Rain = 0
KSLS 030910Z 21008KT 20/15 A3005 RMK A01 T02010152  RH  075%=      5-min Rain = 0
KSLS 030915Z 22008KT 20/15 A3005 RMK A01 T02010152  RH  075%=      5-min Rain = 0
KSLS 030920Z 22007KT 20/15 A3005 RMK A01 T01990151  RH  075%=      5-min Rain = 0
KSLS 030925Z 22006KT 20/15 A3005 RMK A01 T01980151  RH  076%=      5-min Rain = 0
KSLS 030930Z 24006KT 20/15 A3006 RMK A01 T01970151  RH  077%=      5-min Rain = 0
KSLS 030935Z 27008KT 20/15 A3007 RMK A01 T01960152  RH  077%=      5-min Rain = 0
KSLS 030940Z 27006KT 20/15 A3007 RMK A01 T01950151  RH  077%=      5-min Rain = 0
KSLS 030945Z 25006KT 19/15 A3006 RMK A01 T01930150  RH  078%=      5-min Rain = 0
KSLS 030950Z 25006KT 19/15 A3006 RMK A01 T01930150  RH  077%=      5-min Rain = 0
KSLS 030955Z 25006KT 19/15 A3006 RMK A01 T01930149  RH  077%=      5-min Rain = 0
KSLS 031000Z 25006KT 19/15 A3006 RMK A01 T01930149  RH  077%=      5-min Rain = 0
KSLS 031005Z 24005KT 19/15 A3006 RMK A01 T01920149  RH  078%=      5-min Rain = 0
KSLS 031010Z 24004KT 19/15 A3006 RMK A01 T01910149  RH  078%=      5-min Rain = 0
KSLS 031015Z 22003KT 19/15 A3006 RMK A01 T01880148  RH  079%=      5-min Rain = 0
KSLS 031020Z 21004KT 19/15 A3006 RMK A01 T01850148  RH  080%=      5-min Rain = 0
KSLS 031025Z 22004KT 19/15 A3006 RMK A01 T01850148  RH  081%=      5-min Rain = 0
KSLS 031030Z 22004KT 18/15 A3006 RMK A01 T01840148  RH  081%=      5-min Rain = 0
KSLS 031035Z 22005KT 18/15 A3005 RMK A01 T01840148  RH  081%=      5-min Rain = 0
KSLS 031040Z 22006KT 18/15 A3006 RMK A01 T01830148  RH  082%=      5-min Rain = 0
KSLS 031045Z 21006KT 18/15 A3006 RMK A01 T01840150  RH  082%=      5-min Rain = 0
KSLS 031050Z 20007KT 18/15 A3005 RMK A01 T01840149  RH  082%=      5-min Rain = 0
KSLS 031055Z 21007KT 18/15 A3005 RMK A01 T01830149  RH  083%=      5-min Rain = 0
KSLS 031100Z 21007KT 18/15 A3005 RMK A01 T01820149  RH  083%=      5-min Rain = 0
KSLS 031105Z 19006KT 18/15 A3005 RMK A01 T01820149  RH  083%=      5-min Rain = 0
KSLS 031110Z 18005KT 18/15 A3005 RMK A01 T01800148  RH  084%=      5-min Rain = 0
KSLS 031115Z 18005KT 18/15 A3005 RMK A01 T01780147  RH  084%=      5-min Rain = 0
KSLS 031120Z 19005KT 18/15 A3005 RMK A01 T01760147  RH  085%=      5-min Rain = 0
KSLS 031125Z 20005KT 18/15 A3005 RMK A01 T01750146  RH  085%=      5-min Rain = 0
KSLS 031130Z 20006KT 17/15 A3005 RMK A01 T01740146  RH  086%=      5-min Rain = 0
KSLS 031135Z 20006KT 18/15 A3005 RMK A01 T01760148  RH  086%=      5-min Rain = 0
KSLS 031140Z 20007KT 18/15 A3005 RMK A01 T01790150  RH  085%=      5-min Rain = 0
KSLS 031145Z 19007KT 18/15 A3005 RMK A01 T01830151  RH  084%=      5-min Rain = 0
KSLS 031150Z 21007KT 19/15 A3006 RMK A01 T01860151  RH  082%=      5-min Rain = 0
KSLS 031155Z 21006KT 19/15 A3006 RMK A01 T01870153  RH  082%=      5-min Rain = 0
KSLS 031200Z 22006KT 19/15 A3006 RMK A01 T01890154  RH  081%=      5-min Rain = 0
KSLS 031205Z 22005KT 19/15 A3006 RMK A01 T01920154  RH  081%=      5-min Rain = 0
KSLS 031210Z 21006KT 19/16 A3007 RMK A01 T01940155  RH  080%=      5-min Rain = 0
KSLS 031215Z 21007KT 20/16 A3006 RMK A01 T01950156  RH  080%=      5-min Rain = 0
KSLS 031220Z 21007KT 20/16 A3007 RMK A01 T01970156  RH  079%=      5-min Rain = 0
KSLS 031225Z 20007KT 20/16 A3007 RMK A01 T01990156  RH  078%=      5-min Rain = 0
KSLS 031230Z 19006KT 20/16 A3007 RMK A01 T02020158  RH  078%=      5-min Rain = 0
KSLS 031235Z 20007KT 20/16 A3007 RMK A01 T02040158  RH  077%=      5-min Rain = 0
KSLS 031240Z 20007KT 21/16 A3007 RMK A01 T02060159  RH  076%=      5-min Rain = 0
KSLS 031245Z 19007KT 21/16 A3007 RMK A01 T02080160  RH  075%=      5-min Rain = 0
KSLS 031250Z 20007KT 21/16 A3007 RMK A01 T02110161  RH  075%=      5-min Rain = 0
KSLS 031255Z 20008KT 21/16 A3007 RMK A01 T02120162  RH  075%=      5-min Rain = 0
KSLS 031300Z 20008KT 21/16 A3007 RMK A01 T02140162  RH  074%=      5-min Rain = 0
KSLS 031305Z 20009KT 22/16 A3007 RMK A01 T02150163  RH  074%=      5-min Rain = 0
KSLS 031310Z 20009KT 22/17 A3007 RMK A01 T02170165  RH  074%=      5-min Rain = 0
KSLS 031315Z 21010KT 22/17 A3007 RMK A01 T02190166  RH  074%=      5-min Rain = 0
KSLS 031320Z 20010KT 22/17 A3007 RMK A01 T02200167  RH  074%=      5-min Rain = 0
KSLS 031325Z 21009G14KT 22/17 A3007 RMK A01 T02210168  RH  074%=      5-min Rain = 0
KSLS 031330Z 21011KT 22/17 A3007 RMK A01 T02230171  RH  074%=      5-min Rain = 0
KSLS 031335Z 21013KT 23/17 A3007 RMK A01 T02250172  RH  074%=      5-min Rain = 0
KSLS 031340Z 21012KT 23/17 A3008 RMK A01 T02270174  RH  074%=      5-min Rain = 0
KSLS 031345Z 20012KT 23/18 A3008 RMK A01 T02300175  RH  073%=      5-min Rain = 0
KSLS 031350Z 20013KT 23/18 A3007 RMK A01 T02310175  RH  073%=      5-min Rain = 0
KSLS 031355Z 20013G18KT 23/18 A3007 RMK A01 T02320177  RH  073%=      5-min Rain = 0
KSLS 031400Z 21013KT 23/18 A3007 RMK A01 T02340178  RH  073%=      5-min Rain = 0
KSLS 031405Z 21013KT 24/18 A3007 RMK A01 T02360179  RH  072%=      5-min Rain = 0
KSLS 031410Z 21013KT 24/18 A3008 RMK A01 T02390180  RH  071%=      5-min Rain = 0
KSLS 031415Z 21012KT 24/18 A3008 RMK A01 T02390180  RH  071%=      5-min Rain = 0
KSLS 031420Z 21014KT 24/18 A3008 RMK A01 T02400179  RH  070%=      5-min Rain = 0
KSLS 031425Z 22013KT 24/18 A3008 RMK A01 T02410179  RH  070%=      5-min Rain = 0
KSLS 031430Z 22012KT 24/18 A3008 RMK A01 T02430179  RH  069%=      5-min Rain = 0
KSLS 031435Z 21012KT 24/18 A3008 RMK A01 T02440179  RH  069%=      5-min Rain = 0
KSLS 031440Z 22011G16KT 25/18 A3008 RMK A01 T02470178  RH  067%=      5-min Rain = 0
KSLS 031445Z 23012KT 25/18 A3008 RMK A01 T02480178  RH  067%=      5-min Rain = 0
KSLS 031450Z 22012KT 25/18 A3008 RMK A01 T02470178  RH  067%=      5-min Rain = 0
KSLS 031455Z 22012KT 25/18 A3008 RMK A01 T02510178  RH  065%=      5-min Rain = 0
KSLS 031500Z 23012KT 25/18 A3008 RMK A01 T02500177  RH  065%=      5-min Rain = 0
KSLS 031505Z 22012KT 25/18 A3008 RMK A01 T02520179  RH  066%=      5-min Rain = 0
KSLS 031510Z 22012KT 25/18 A3008 RMK A01 T02540180  RH  065%=      5-min Rain = 0
KSLS 031515Z 22013KT 25/18 A3008 RMK A01 T02540179  RH  065%=      5-min Rain = 0
KSLS 031520Z 23011KT 26/18 A3008 RMK A01 T02590178  RH  063%=      5-min Rain = 0
KSLS 031525Z 22011KT 26/18 A3008 RMK A01 T02590178  RH  062%=      5-min Rain = 0
KSLS 031530Z 21010KT 26/18 A3008 RMK A01 T02590179  RH  063%=      5-min Rain = 0
KSLS 031535Z 22011KT 26/18 A3007 RMK A01 T02620178  RH  061%=      5-min Rain = 0
KSLS 031540Z 23010KT 27/18 A3007 RMK A01 T02660176  RH  059%=      5-min Rain = 0
KSLS 031545Z 23010KT 26/18 A3007 RMK A01 T02640178  RH  061%=      5-min Rain = 0
KSLS 031550Z 23010KT 27/17 A3007 RMK A01 T02650172  RH  058%=      5-min Rain = 0
KSLS 031555Z 20010KT 27/18 A3007 RMK A01 T02670176  RH  059%=      5-min Rain = 0
KSLS 031600Z 22011KT 27/17 A3007 RMK A01 T02690174  RH  058%=      5-min Rain = 0
KSLS 031605Z 21009G15KT 27/18 A3007 RMK A01 T02710177  RH  058%=      5-min Rain = 0
KSLS 031610Z 20010KT 27/18 A3007 RMK A01 T02730175  RH  056%=      5-min Rain = 0
KSLS 031615Z 22009G14KT 27/17 A3007 RMK A01 T02720171  RH  055%=      5-min Rain = 0
KSLS 031620Z 22008KT 28/18 A3007 RMK A01 T02750175  RH  056%=      5-min Rain = 0
KSLS 031625Z 20008KT 28/18 A3007 RMK A01 T02770175  RH  055%=      5-min Rain = 0
KSLS 031630Z 19009KT 28/17 A3007 RMK A01 T02780169  RH  053%=      5-min Rain = 0
KSLS 031635Z 22008KT 28/17 A3007 RMK A01 T02790172  RH  053%=      5-min Rain = 0
KSLS 031640Z 21007KT 28/17 A3007 RMK A01 T02800172  RH  053%=      5-min Rain = 0
KSLS 031645Z 25006KT 28/17 A3007 RMK A01 T02820169  RH  051%=      5-min Rain = 0
KSLS 031650Z 20007KT 28/17 A3006 RMK A01 T02810169  RH  052%=      5-min Rain = 0
KSLS 031655Z 21008KT 28/17 A3006 RMK A01 T02820167  RH  051%=      5-min Rain = 0
KSLS 031700Z 22008KT 29/17 A3006 RMK A01 T02860169  RH  050%=      5-min Rain = 0
KSLS 031705Z 23005KT 29/17 A3006 RMK A01 T02910167  RH  048%=      5-min Rain = 0
KSLS 031710Z 21005G10KT 29/17 A3006 RMK A01 T02890168  RH  049%=      5-min Rain = 0
KSLS 031715Z 18006KT 29/17 A3006 RMK A01 T02900169  RH  049%=      5-min Rain = 0
KSLS 031720Z 23005G11KT 29/17 A3006 RMK A01 T02920170  RH  049%=      5-min Rain = 0
KSLS 031725Z 23007KT 30/17 A3006 RMK A01 T02950169  RH  048%=      5-min Rain = 0
KSLS 031730Z 23005G11KT 29/17 A3006 RMK A01 T02940168  RH  048%=      5-min Rain = 0
KSLS 031735Z 27007KT 29/17 A3005 RMK A01 T02940166  RH  047%=      5-min Rain = 0
KSLS 031740Z 19007KT 30/17 A3005 RMK A01 T02980166  RH  046%=      5-min Rain = 0
KSLS 031745Z 17006KT 30/17 A3005 RMK A01 T03000165  RH  045%=      5-min Rain = 0
KSLS 031750Z 22007KT 30/17 A3005 RMK A01 T03000169  RH  046%=      5-min Rain = 0
KSLS 031755Z 19006KT 30/17 A3005 RMK A01 T03000168  RH  046%=      5-min Rain = 0
KSLS 031800Z 16008KT 30/16 A3004 RMK A01 T03010164  RH  045%=      5-min Rain = 0
KSLS 031805Z 18004G9KT 30/16 A3004 RMK A01 T03000162  RH  044%=      5-min Rain = 0
KSLS 031810Z 21007G12KT 30/17 A3004 RMK A01 T03040169  RH  045%=      5-min Rain = 0
KSLS 031815Z 18009KT 30/17 A3004 RMK A01 T03020166  RH  045%=      5-min Rain = 0
KSLS 031820Z 17009KT 31/17 A3004 RMK A01 T03070166  RH  044%=      5-min Rain = 0
KSLS 031825Z 17007KT 31/16 A3003 RMK A01 T03070162  RH  043%=      5-min Rain = 0
KSLS 031830Z 22010KT 31/17 A3003 RMK A01 T03090165  RH  043%=      5-min Rain = 0
KSLS 031835Z 20007KT 31/16 A3003 RMK A01 T03080162  RH  042%=      5-min Rain = 0
KSLS 031840Z 17004KT 31/16 A3003 RMK A01 T03080160  RH  042%=      5-min Rain = 0
KSLS 031845Z 16004KT 31/16 A3002 RMK A01 T03060161  RH  042%=      5-min Rain = 0
KSLS 031850Z 17005KT 31/16 A3002 RMK A01 T03130161  RH  041%=      5-min Rain = 0
KSLS 031855Z 18004KT 31/16 A3002 RMK A01 T03130160  RH  041%=      5-min Rain = 0
KSLS 031900Z 21006KT 31/15 A3002 RMK A01 T03130153  RH  039%=      5-min Rain = 0
KSLS 031905Z 22005KT 32/15 A3002 RMK A01 T03150152  RH  038%=      5-min Rain = 0
KSLS 031910Z 15005G11KT 32/16 A3002 RMK A01 T03160156  RH  039%=      5-min Rain = 0
KSLS 031915Z 14006KT 31/15 A3002 RMK A01 T03140151  RH  038%=      5-min Rain = 0
KSLS 031920Z 15005KT 32/15 A3002 RMK A01 T03180152  RH  037%=      5-min Rain = 0
KSLS 031925Z 19005G11KT 32/15 A3002 RMK A01 T03180151  RH  037%=      5-min Rain = 0
KSLS 031930Z 21004G9KT 32/15 A3001 RMK A01 T03180150  RH  037%=      5-min Rain = 0
KSLS 031935Z 20002KT 32/15 A3001 RMK A01 T03160149  RH  037%=      5-min Rain = 0
KSLS 031940Z 18001KT 31/15 A3001 RMK A01 T03080147  RH  038%=      5-min Rain = 0
KSLS 031945Z 06001KT 31/15 A3001 RMK A01 T03070150  RH  039%=      5-min Rain = 0
KSLS 031950Z 09005KT 31/15 A3001 RMK A01 T03090151  RH  039%=      5-min Rain = 0
KSLS 031955Z 14004KT 32/15 A3001 RMK A01 T03190145  RH  036%=      5-min Rain = 0
KSLS 032000Z 09006KT 32/14 A30 RMK A01 T03230139  RH  034%=      5-min Rain = 0
KSLS 032005Z 14004G9KT 32/14 A30 RMK A01 T03230136  RH  033%=      5-min Rain = 0
KSLS 032010Z 20003KT 32/14 A30 RMK A01 T03220139  RH  034%=      5-min Rain = 0
KSLS 032015Z 12003KT 33/14 A30 RMK A01 T03270142  RH  033%=      5-min Rain = 0
KSLS 032020Z 10008KT 32/14 A30 RMK A01 T03180144  RH  035%=      5-min Rain = 0
KSLS 032025Z 09008KT 32/14 A2999 RMK A01 T03150135  RH  034%=      5-min Rain = 0
KSLS 032030Z 09004KT 32/13 A2999 RMK A01 T03150132  RH  033%=      5-min Rain = 0
KSLS 032035Z 12003G10KT 32/14 A2999 RMK A01 T03240139  RH  033%=      5-min Rain = 0
KSLS 032040Z 15008KT 33/15 A2999 RMK A01 T03290146  RH  034%=      5-min Rain = 0
KSLS 032045Z 15008G13KT 33/14 A2998 RMK A01 T03280143  RH  033%=      5-min Rain = 0
KSLS 032050Z 17005G11KT 33/14 A2998 RMK A01 T03270138  RH  033%=      5-min Rain = 0
KSLS 032055Z 17006KT 33/14 A2998 RMK A01 T03290139  RH  032%=      5-min Rain = 0
KSLS 032100Z 16005KT 33/14 A2998 RMK A01 T03280137  RH  032%=      5-min Rain = 0
KSLS 032105Z 14008KT 33/14 A2998 RMK A01 T03310136  RH  031%=      5-min Rain = 0
KSLS 032110Z 14006G14KT 33/13 A2998 RMK A01 T03290133  RH  031%=      5-min Rain = 0
KSLS 032115Z 12005KT 33/14 A2998 RMK A01 T03290138  RH  032%=      5-min Rain = 0
KSLS 032120Z 12008KT 33/14 A2997 RMK A01 T03280136  RH  032%=      5-min Rain = 0
KSLS 032125Z 13008KT 33/14 A2997 RMK A01 T03280135  RH  032%=      5-min Rain = 0
KSLS 032130Z 12005G10KT 33/13 A2997 RMK A01 T03270132  RH  031%=      5-min Rain = 0
KSLS 032135Z 14005G13KT 33/13 A2997 RMK A01 T03280130  RH  031%=      5-min Rain = 0
KSLS 032140Z 27002KT 33/13 A2996 RMK A01 T03290128  RH  030%=      5-min Rain = 0
KSLS 032145Z 19004G11KT 33/13 A2996 RMK A01 T03330134  RH  031%=      5-min Rain = 0
KSLS 032150Z 16009G15KT 33/13 A2996 RMK A01 T03330132  RH  030%=      5-min Rain = 0
KSLS 032155Z 14005G10KT 33/13 A2996 RMK A01 T03290129  RH  030%=      5-min Rain = 0
KSLS 032200Z 14007KT 33/13 A2996 RMK A01 T03280127  RH  030%=      5-min Rain = 0
KSLS 032205Z 13006G13KT 33/13 A2995 RMK A01 T03300131  RH  031%=      5-min Rain = 0
KSLS 032210Z 09008KT 33/13 A2995 RMK A01 T03300131  RH  030%=      5-min Rain = 0
KSLS 032215Z 07006KT 33/13 A2995 RMK A01 T03310130  RH  030%=      5-min Rain = 0
KSLS 032220Z 11006G12KT 33/13 A2995 RMK A01 T03320131  RH  030%=      5-min Rain = 0
KSLS 032225Z 13007G12KT 33/13 A2995 RMK A01 T03320127  RH  029%=      5-min Rain = 0
KSLS 032230Z 17009KT 33/13 A2994 RMK A01 T03320128  RH  030%=      5-min Rain = 0
KSLS 032235Z 21004G10KT 33/13 A2994 RMK A01 T03310127  RH  029%=      5-min Rain = 0
KSLS 032240Z 13001KT 34/13 A2994 RMK A01 T03370129  RH  029%=      5-min Rain = 0
KSLS 032245Z 13006G11KT 33/12 A2994 RMK A01 T03330123  RH  029%=      5-min Rain = 0
KSLS 032250Z 13005G11KT 33/12 A2994 RMK A01 T03300120  RH  028%=      5-min Rain = 0
KSLS 032255Z 12005G12KT 33/12 A2993 RMK A01 T03290123  RH  029%=      5-min Rain = 0
KSLS 032300Z 16005KT 33/12 A2993 RMK A01 T03280122  RH  029%=      5-min Rain = 0
KSLS 032305Z 15008G14KT 33/12 A2993 RMK A01 T03280123  RH  029%=      5-min Rain = 0
KSLS 032310Z 19009KT 33/13 A2993 RMK A01 T03280127  RH  030%=      5-min Rain = 0
KSLS 032315Z 15005KT 33/13 A2993 RMK A01 T03290127  RH  030%=      5-min Rain = 0
KSLS 032320Z 12006G11KT 33/13 A2993 RMK A01 T03280125  RH  030%=      5-min Rain = 0
KSLS 032325Z 14010KT 32/13 A2993 RMK A01 T03220127  RH  031%=      5-min Rain = 0
KSLS 032330Z 14007G13KT 32/13 A2993 RMK A01 T03180127  RH  032%=      5-min Rain = 0
KSLS 032335Z 13008KT 32/13 A2993 RMK A01 T03160126  RH  032%=      5-min Rain = 0
KSLS 032340Z 13008KT 32/13 A2993 RMK A01 T03160128  RH  032%=      5-min Rain = 0
KSLS 032345Z 14007KT 32/13 A2993 RMK A01 T03160129  RH  033%=      5-min Rain = 0
KSLS 032350Z 13007KT 32/13 A2993 RMK A01 T03160125  RH  032%=      5-min Rain = 0
KSLS 032355Z 14007KT 32/13 A2993 RMK A01 T03170128  RH  032%=      5-min Rain = 0
KSLS 040000Z 12007KT 32/13 A2993 RMK A01 T03160130  RH  033%=      5-min Rain = 0
KSLS 040005Z 13009KT 32/13 A2993 RMK A01 T03150129  RH  033%=      5-min Rain = 0
KSLS 040010Z 12009KT 31/13 A2993 RMK A01 T03140127  RH  033%=      5-min Rain = 0
KSLS 040015Z 12010KT 31/13 A2993 RMK A01 T03140128  RH  033%=      5-min Rain = 0
KSLS 040020Z 12009KT 32/13 A2993 RMK A01 T03180130  RH  032%=      5-min Rain = 0
KSLS 040025Z 12010KT 32/13 A2993 RMK A01 T03200128  RH  032%=      5-min Rain = 0
KSLS 040030Z 12009KT 32/13 A2993 RMK A01 T03160129  RH  033%=      5-min Rain = 0
KSLS 040035Z 12010KT 31/13 A2993 RMK A01 T03110126  RH  033%=      5-min Rain = 0
KSLS 040040Z 12010KT 31/13 A2993 RMK A01 T03090126  RH  033%=      5-min Rain = 0
KSLS 040045Z 13009KT 31/13 A2993 RMK A01 T03060130  RH  035%=      5-min Rain = 0
KSLS 040050Z 13009KT 31/13 A2993 RMK A01 T03060130  RH  035%=      5-min Rain = 0
KSLS 040055Z 12009KT 31/13 A2992 RMK A01 T03060129  RH  034%=      5-min Rain = 0
KSLS 040100Z 13010KT 31/13 A2992 RMK A01 T03050129  RH  035%=      5-min Rain = 0
KSLS 040105Z 13010KT 31/13 A2992 RMK A01 T03070128  RH  034%=      5-min Rain = 0
KSLS 040110Z 13010KT 31/13 A2992 RMK A01 T03070129  RH  034%=      5-min Rain = 0
KSLS 040115Z 13010KT 31/13 A2992 RMK A01 T03060129  RH  034%=      5-min Rain = 0
KSLS 040120Z 14010KT 31/13 A2992 RMK A01 T03050127  RH  034%=      5-min Rain = 0
KSLS 040125Z 14009KT 30/13 A2993 RMK A01 T03020125  RH  034%=      5-min Rain = 0
KSLS 040130Z 14009KT 30/12 A2993 RMK A01 T02990124  RH  035%=      5-min Rain = 0
KSLS 040135Z 14009KT 30/12 A2993 RMK A01 T02960124  RH  035%=      5-min Rain = 0
KSLS 040140Z 14009KT 29/12 A2992 RMK A01 T02930124  RH  036%=      5-min Rain = 0
KSLS 040145Z 15009KT 29/13 A2992 RMK A01 T02900126  RH  037%=      5-min Rain = 0
KSLS 040150Z 15009KT 29/13 A2992 RMK A01 T02870127  RH  038%=      5-min Rain = 0
KSLS 040155Z 15008KT 28/13 A2992 RMK A01 T02840127  RH  039%=      5-min Rain = 0
KSLS 040200Z 15008KT 28/13 A2992 RMK A01 T02810127  RH  039%=      5-min Rain = 0
KSLS 040205Z 15007KT 28/13 A2993 RMK A01 T02770128  RH  040%=      5-min Rain = 0
KSLS 040210Z 15007KT 27/13 A2993 RMK A01 T02730129  RH  042%=      5-min Rain = 0
KSLS 040215Z 14007KT 27/13 A2993 RMK A01 T02680129  RH  043%=      5-min Rain = 0
KSLS 040220Z 13006KT 26/13 A2993 RMK A01 T02640128  RH  044%=      5-min Rain = 0
KSLS 040225Z 13006KT 26/13 A2994 RMK A01 T02630130  RH  044%=      5-min Rain = 0
KSLS 040230Z 13007KT 26/13 A2994 RMK A01 T02570131  RH  047%=      5-min Rain = 0
KSLS 040235Z 14007KT 25/13 A2994 RMK A01 T02530132  RH  048%=      5-min Rain = 0
KSLS 040240Z 15007KT 25/13 A2994 RMK A01 T02540131  RH  047%=      5-min Rain = 0
KSLS 040245Z 16008KT 26/13 A2994 RMK A01 T02550130  RH  047%=      5-min Rain = 0
KSLS 040250Z 16009KT 26/13 A2994 RMK A01 T02580133  RH  047%=      5-min Rain = 0
KSLS 040255Z 16009KT 26/13 A2994 RMK A01 T02620133  RH  046%=      5-min Rain = 0
KSLS 040300Z 16009KT 26/13 A2994 RMK A01 T02640133  RH  045%=      5-min Rain = 0
KSLS 040305Z 16008KT 26/14 A2994 RMK A01 T02620135  RH  046%=      5-min Rain = 0
KSLS 040310Z 16008KT 26/14 A2994 RMK A01 T02600135  RH  047%=      5-min Rain = 0
KSLS 040315Z 16008KT 26/14 A2994 RMK A01 T02580135  RH  048%=      5-min Rain = 0
KSLS 040320Z 16008KT 26/14 A2995 RMK A01 T02550136  RH  048%=      5-min Rain = 0
KSLS 040325Z 16008KT 25/14 A2995 RMK A01 T02530136  RH  049%=      5-min Rain = 0
KSLS 040330Z 16007KT 25/14 A2995 RMK A01 T02500137  RH  050%=      5-min Rain = 0
KSLS 040335Z 16007KT 25/14 A2995 RMK A01 T02500137  RH  051%=      5-min Rain = 0
KSLS 040340Z 16007KT 25/14 A2996 RMK A01 T02450139  RH  053%=      5-min Rain = 0
KSLS 040345Z 16008KT 24/14 A2996 RMK A01 T02420139  RH  053%=      5-min Rain = 0
KSLS 040350Z 16008KT 24/14 A2996 RMK A01 T02420139  RH  054%=      5-min Rain = 0
KSLS 040355Z 16008KT 24/14 A2996 RMK A01 T02430139  RH  053%=      5-min Rain = 0
KSLS 040400Z 16008KT 24/14 A2996 RMK A01 T02430139  RH  053%=      5-min Rain = 0
KSLS 040405Z 16008KT 24/14 A2996 RMK A01 T02430139  RH  053%=      5-min Rain = 0
KSLS 040410Z 17008KT 25/14 A2996 RMK A01 T02450140  RH  053%=      5-min Rain = 0
KSLS 040415Z 17007KT 25/14 A2996 RMK A01 T02470139  RH  052%=      5-min Rain = 0
KSLS 040420Z 17007KT 24/14 A2996 RMK A01 T02440139  RH  053%=      5-min Rain = 0
KSLS 040425Z 17006KT 24/14 A2996 RMK A01 T02420138  RH  053%=      5-min Rain = 0
KSLS 040430Z 17006KT 24/14 A2996 RMK A01 T02390138  RH  054%=      5-min Rain = 0
KSLS 040435Z 17007KT 24/14 A2996 RMK A01 T02390138  RH  054%=      5-min Rain = 0
KSLS 040440Z 17008KT 24/14 A2996 RMK A01 T02400138  RH  054%=      5-min Rain = 0
KSLS 040445Z 17008KT 24/14 A2996 RMK A01 T02400138  RH  054%=      5-min Rain = 0
KSLS 040450Z 17009KT 24/14 A2996 RMK A01 T02390138  RH  054%=      5-min Rain = 0
KSLS 040455Z 17009KT 24/14 A2996 RMK A01 T02420138  RH  053%=      5-min Rain = 0

Page generated in 0.0093 seconds.